Time;durP1;ratioP1;P1;durP2;ratioP2;P2;SDS_P1;SDS_P2;PMS_P1;PMS_P2;Temp;Humidity;BMP_temperature;BMP_pressure;BME280_temperature;BME280_humidity;BME280_pressure;Samples;Min_cycle;Max_cycle;Signal;HPM_P1;HPM_P2
2022/12/08 00:01:55;;;;;;;9.80;7.57;;;1.90;57.60;;;;;;5003891;28;20509;-75
2022/12/08 00:10:46;;;;;;;12.82;8.45;;;1.80;57.50;;;;;;5014881;28;20064;-75
2022/12/08 00:13:30;;;;;;;11.07;7.60;;;1.70;57.40;;;;;;5018323;28;20056;-75
2022/12/08 00:16:15;;;;;;;10.98;8.00;;;1.70;57.50;;;;;;5002805;28;20991;-75
2022/12/08 00:19:00;;;;;;;12.77;8.60;;;1.70;57.50;;;;;;5004081;28;20137;-76
2022/12/08 00:21:45;;;;;;;10.73;8.05;;;1.60;57.40;;;;;;5019968;28;20096;-76
2022/12/08 00:24:32;;;;;;;14.40;7.30;;;1.60;57.50;;;;;;5019544;28;20121;-75
2022/12/08 00:27:16;;;;;;;11.95;9.13;;;1.60;57.50;;;;;;4994186;28;20032;-75
2022/12/08 00:30:01;;;;;;;12.10;8.27;;;1.50;57.30;;;;;;5008251;28;20052;-75
2022/12/08 00:32:46;;;;;;;10.20;7.43;;;1.50;57.40;;;;;;5005978;28;20036;-75
2022/12/08 00:35:30;;;;;;;11.57;7.45;;;1.50;57.40;;;;;;5009331;28;20370;-76
2022/12/08 00:38:15;;;;;;;9.65;7.38;;;1.50;57.40;;;;;;5012403;28;20130;-76
2022/12/08 00:41:00;;;;;;;9.13;7.63;;;1.40;57.20;;;;;;5024622;28;20076;-76
2022/12/08 00:43:44;;;;;;;10.18;7.90;;;1.40;57.20;;;;;;5032882;28;20060;-76
2022/12/08 00:46:29;;;;;;;12.13;8.27;;;1.40;57.30;;;;;;5025183;28;20064;-75
2022/12/08 00:49:14;;;;;;;11.65;7.80;;;1.40;57.30;;;;;;5021610;28;20121;-75
2022/12/08 00:52:00;;;;;;;10.65;8.20;;;1.40;57.30;;;;;;5010672;28;20044;-76
2022/12/08 00:54:44;;;;;;;10.60;7.38;;;1.30;57.20;;;;;;5024552;28;20095;-76
2022/12/08 00:57:29;;;;;;;10.48;7.32;;;1.30;57.10;;;;;;5023443;28;20068;-76
2022/12/08 01:00:14;;;;;;;10.10;8.82;;;1.30;57.20;;;;;;5052924;28;20119;-76
2022/12/08 01:02:59;;;;;;;12.38;7.13;;;1.20;57.00;;;;;;5023917;28;20037;-76
2022/12/08 01:05:43;;;;;;;10.88;7.60;;;1.20;57.00;;;;;;5022270;28;20309;-76
2022/12/08 01:08:28;;;;;;;8.98;8.02;;;1.20;57.00;;;;;;5028941;28;20045;-75
2022/12/08 01:11:18;;;;;;;12.13;7.88;;;1.20;57.00;;;;;;5042924;28;20064;-75
2022/12/08 01:14:03;;;;;;;9.13;7.25;;;1.10;56.80;;;;;;5042385;28;20041;-75
2022/12/08 01:16:47;;;;;;;11.05;7.38;;;1.10;56.90;;;;;;4994139;28;20516;-76
2022/12/08 01:19:31;;;;;;;11.73;7.55;;;1.10;56.90;;;;;;5008407;28;20540;-76
2022/12/08 01:22:16;;;;;;;12.65;7.45;;;1.00;56.70;;;;;;5006740;28;20137;-75
2022/12/08 01:25:01;;;;;;;9.43;7.63;;;1.00;56.80;;;;;;5007304;28;20051;-76
2022/12/08 01:27:46;;;;;;;9.18;7.82;;;1.00;56.80;;;;;;5007591;28;20084;-75
2022/12/08 01:30:30;;;;;;;8.30;6.55;;;0.90;56.60;;;;;;5007276;28;20296;-75
2022/12/08 01:33:15;;;;;;;8.65;7.80;;;0.90;56.60;;;;;;5007854;28;20060;-75
2022/12/08 01:36:04;;;;;;;9.68;7.00;;;0.80;56.50;;;;;;5006569;28;22597;-75
2022/12/08 01:38:49;;;;;;;9.68;7.43;;;0.80;56.50;;;;;;5015541;28;20192;-75
2022/12/08 01:41:36;;;;;;;8.73;7.45;;;0.80;56.50;;;;;;5025867;28;20059;-75
2022/12/08 01:44:20;;;;;;;8.75;7.35;;;0.80;56.50;;;;;;5009480;28;20064;-74
2022/12/08 01:47:04;;;;;;;11.27;7.38;;;0.80;56.60;;;;;;5005815;28;20087;-75
2022/12/08 01:49:49;;;;;;;9.02;7.55;;;0.70;56.40;;;;;;5008714;28;20522;-76
2022/12/08 01:52:44;;;;;;;11.27;7.13;;;0.70;56.40;;;;;;5013231;28;20161;-75
2022/12/08 01:55:35;;;;;;;8.80;6.72;;;0.70;56.40;;;;;;5007138;28;20057;-75
2022/12/08 01:58:27;;;;;;;9.65;7.25;;;0.70;56.40;;;;;;5004175;28;20044;-76
2022/12/08 02:01:12;;;;;;;10.80;7.30;;;0.70;56.40;;;;;;5011435;28;20052;-76
2022/12/08 02:03:59;;;;;;;11.18;6.95;;;0.60;56.20;;;;;;5011588;28;20634;-75
2022/12/08 02:06:45;;;;;;;10.95;7.97;;;0.60;56.20;;;;;;5021287;28;20113;-76
2022/12/08 02:09:30;;;;;;;11.80;7.95;;;0.60;56.20;;;;;;5019666;28;20524;-74
2022/12/08 02:12:15;;;;;;;10.20;7.28;;;0.50;56.10;;;;;;4991417;28;20040;-75
2022/12/08 02:14:59;;;;;;;11.32;7.72;;;0.50;56.00;;;;;;5005902;28;20441;-75
2022/12/08 02:17:49;;;;;;;11.00;7.32;;;0.50;56.10;;;;;;5005977;28;20044;-75
2022/12/08 02:20:57;;;;;;;10.50;7.97;;;0.50;56.10;;;;;;5012935;28;20056;-75
2022/12/08 02:24:26;;;;;;;8.13;7.28;;;0.40;55.90;;;;;;5006070;28;20377;-75
2022/12/08 02:27:32;;;;;;;8.80;6.70;;;0.40;55.90;;;;;;4993049;28;20087;-75
2022/12/08 02:30:54;;;;;;;10.27;7.60;;;0.40;55.90;;;;;;4995530;28;20404;-76
2022/12/08 02:34:03;;;;;;;11.27;7.15;;;0.40;55.90;;;;;;5010377;28;20045;-75
2022/12/08 02:37:08;;;;;;;9.25;6.47;;;0.40;55.90;;;;;;5007056;28;20097;-75
2022/12/08 02:40:36;;;;;;;10.50;6.32;;;0.40;56.00;;;;;;5021679;28;20060;-74
2022/12/08 02:43:33;;;;;;;10.07;7.93;;;0.30;55.80;;;;;;4978529;28;20090;-75
2022/12/08 02:46:23;;;;;;;8.52;7.15;;;0.30;55.70;;;;;;5017530;28;20358;-76
2022/12/08 02:49:09;;;;;;;10.25;7.70;;;0.30;55.70;;;;;;4993749;28;20140;-75
2022/12/08 02:52:05;;;;;;;13.93;7.53;;;0.30;55.70;;;;;;5025413;28;20044;-76
2022/12/08 02:55:01;;;;;;;11.77;6.95;;;0.30;55.70;;;;;;4992926;28;20053;-75
2022/12/08 02:58:06;;;;;;;9.10;7.57;;;0.30;55.70;;;;;;5008144;28;20041;-76
2022/12/08 03:01:05;;;;;;;7.43;6.40;;;0.20;55.60;;;;;;5006331;28;20057;-75
2022/12/08 03:04:07;;;;;;;9.52;6.88;;;0.20;55.60;;;;;;5012043;28;20036;-76
2022/12/08 03:07:05;;;;;;;10.30;7.75;;;0.20;55.60;;;;;;5011429;28;20048;-76
2022/12/08 03:10:00;;;;;;;8.57;6.30;;;0.20;55.70;;;;;;5026984;28;20048;-76
2022/12/08 03:12:52;;;;;;;10.77;6.88;;;0.10;55.50;;;;;;5008035;28;20053;-76
2022/12/08 03:15:38;;;;;;;11.07;7.07;;;0.10;55.50;;;;;;5007046;28;20132;-75
2022/12/08 03:18:27;;;;;;;8.70;6.88;;;0.10;55.50;;;;;;5004721;28;20450;-75
2022/12/08 03:21:15;;;;;;;8.90;6.68;;;0.10;55.50;;;;;;4990998;28;20429;-75
2022/12/08 03:24:03;;;;;;;9.35;6.85;;;0.00;55.40;;;;;;5026190;28;20508;-75
2022/12/08 03:26:55;;;;;;;8.73;6.90;;;0.00;55.40;;;;;;5012050;28;20040;-75
2022/12/08 03:29:40;;;;;;;10.30;6.55;;;0.00;55.40;;;;;;5005245;28;20114;-75
2022/12/08 03:32:49;;;;;;;8.50;6.38;;;0.00;55.40;;;;;;5007485;28;20040;-76
2022/12/08 03:35:38;;;;;;;12.07;7.20;;;0.00;55.40;;;;;;4992022;28;20033;-75
2022/12/08 03:38:22;;;;;;;7.88;6.65;;;0.00;55.40;;;;;;5012572;28;20455;-75
2022/12/08 03:41:19;;;;;;;9.10;7.45;;;-0.10;55.20;;;;;;5025520;28;20107;-76
2022/12/08 03:44:04;;;;;;;8.82;6.88;;;0.00;55.40;;;;;;4990718;28;20080;-76
2022/12/08 03:46:48;;;;;;;9.98;7.60;;;-0.10;55.20;;;;;;4939170;28;1184476;-75
2022/12/08 03:49:33;;;;;;;8.32;6.82;;;-0.10;55.20;;;;;;4974357;28;20088;-75
2022/12/08 03:52:17;;;;;;;8.35;7.40;;;-0.10;55.20;;;;;;4985761;28;20041;-75
2022/12/08 03:55:03;;;;;;;11.50;7.32;;;-0.10;55.20;;;;;;4968964;28;20076;-75
2022/12/08 03:57:47;;;;;;;7.78;6.60;;;-0.10;55.20;;;;;;4969352;28;20073;-75
2022/12/08 04:00:32;;;;;;;9.57;7.68;;;-0.10;55.10;;;;;;4968148;28;20057;-75
2022/12/08 04:03:16;;;;;;;9.50;6.50;;;-0.20;55.00;;;;;;4968660;28;20326;-76
2022/12/08 04:06:01;;;;;;;7.68;5.95;;;-0.20;55.00;;;;;;4968470;28;20489;-76
2022/12/08 04:08:46;;;;;;;10.48;7.28;;;-0.20;55.00;;;;;;4990135;28;20560;-75
2022/12/08 04:11:31;;;;;;;8.15;6.78;;;-0.20;55.00;;;;;;4978219;28;20150;-75
2022/12/08 04:14:15;;;;;;;10.30;7.50;;;-0.20;55.10;;;;;;4969366;28;20486;-76
2022/12/08 04:17:00;;;;;;;10.00;7.50;;;-0.20;55.00;;;;;;4968909;28;20069;-75
2022/12/08 04:19:44;;;;;;;11.75;7.32;;;-0.20;55.00;;;;;;4969838;28;20078;-76
2022/12/08 04:22:29;;;;;;;10.85;7.90;;;-0.20;55.00;;;;;;4972558;28;20117;-75
2022/12/08 04:25:14;;;;;;;8.77;6.53;;;-0.20;55.00;;;;;;4973015;28;20093;-75
2022/12/08 04:27:58;;;;;;;10.00;6.53;;;-0.10;55.20;;;;;;4972725;28;20518;-75
2022/12/08 04:30:43;;;;;;;10.27;6.72;;;-0.10;55.20;;;;;;4971411;28;20126;-76
2022/12/08 04:33:28;;;;;;;9.50;7.05;;;-0.10;55.10;;;;;;4986054;28;20061;-77
2022/12/08 04:36:12;;;;;;;12.38;8.23;;;-0.10;55.10;;;;;;4971806;28;20514;-76
2022/12/08 04:38:57;;;;;;;9.40;7.72;;;-0.10;55.10;;;;;;4982296;28;20485;-74
2022/12/08 04:41:41;;;;;;;9.52;7.05;;;-0.10;55.10;;;;;;4991760;28;20049;-76
2022/12/08 04:44:26;;;;;;;9.15;6.90;;;0.00;55.20;;;;;;4972663;28;20344;-76
2022/12/08 04:47:11;;;;;;;8.38;7.22;;;0.00;55.20;;;;;;4998765;28;20188;-76
2022/12/08 04:49:55;;;;;;;10.88;7.45;;;0.00;55.20;;;;;;5031487;28;20087;-75
2022/12/08 04:52:40;;;;;;;9.40;7.35;;;0.10;55.30;;;;;;5023855;28;20045;-75
2022/12/08 04:55:24;;;;;;;8.73;6.78;;;0.10;55.30;;;;;;5009955;28;20064;-75
2022/12/08 04:58:14;;;;;;;8.73;6.65;;;0.10;55.20;;;;;;5017675;28;20094;-76
2022/12/08 05:00:58;;;;;;;9.57;6.53;;;0.20;55.40;;;;;;5033384;28;20107;-75
2022/12/08 05:03:43;;;;;;;11.68;7.20;;;0.20;55.30;;;;;;5011959;28;20037;-75
2022/12/08 05:06:27;;;;;;;9.75;6.90;;;0.30;55.50;;;;;;5009806;28;20060;-76
2022/12/08 05:09:12;;;;;;;9.95;7.45;;;0.30;55.40;;;;;;5022528;28;20555;-75
2022/12/08 05:11:56;;;;;;;9.23;7.07;;;0.40;55.60;;;;;;5029094;28;20056;-75
2022/12/08 05:14:41;;;;;;;9.10;6.57;;;0.40;55.50;;;;;;5010675;28;20216;-75
2022/12/08 05:17:26;;;;;;;9.25;6.97;;;0.40;55.50;;;;;;5010089;28;20125;-75
2022/12/08 05:20:11;;;;;;;8.90;7.05;;;0.50;55.70;;;;;;5010524;28;20096;-75
2022/12/08 05:22:55;;;;;;;11.75;6.80;;;0.50;55.60;;;;;;5010114;28;20041;-75
2022/12/08 05:25:39;;;;;;;8.70;7.10;;;0.50;55.60;;;;;;5009924;28;20516;-76
2022/12/08 05:28:24;;;;;;;9.15;6.60;;;0.50;55.60;;;;;;5010909;28;20068;-76
2022/12/08 05:31:14;;;;;;;11.18;7.18;;;0.60;55.70;;;;;;5009898;28;20528;-77
2022/12/08 05:33:58;;;;;;;8.77;6.85;;;0.60;55.70;;;;;;5010844;28;20094;-76
2022/12/08 05:36:42;;;;;;;10.63;7.78;;;0.70;55.90;;;;;;4994737;28;20044;-75
2022/12/08 05:39:27;;;;;;;9.77;6.72;;;0.70;55.90;;;;;;5023562;28;20212;-76
2022/12/08 05:42:11;;;;;;;8.48;6.68;;;0.70;55.90;;;;;;5029980;28;20041;-76
2022/12/08 05:44:56;;;;;;;8.52;6.32;;;0.70;55.80;;;;;;5028281;28;20397;-76
2022/12/08 05:47:41;;;;;;;11.70;7.18;;;0.80;56.10;;;;;;5008176;28;20060;-76
2022/12/08 05:50:25;;;;;;;8.55;6.53;;;0.80;56.10;;;;;;5006378;28;20124;-75
2022/12/08 05:53:14;;;;;;;9.20;7.07;;;0.80;56.10;;;;;;5005739;28;20348;-76
2022/12/08 05:55:58;;;;;;;9.77;7.00;;;0.90;56.20;;;;;;4991072;28;20052;-75
2022/12/08 05:58:43;;;;;;;12.10;6.38;;;0.80;56.00;;;;;;5016889;28;20052;-75
2022/12/08 06:01:29;;;;;;;9.32;6.18;;;0.90;56.20;;;;;;5030098;28;20124;-76
2022/12/08 06:04:14;;;;;;;8.55;6.43;;;0.80;56.00;;;;;;5015581;28;20045;-76
2022/12/08 06:06:59;;;;;;;8.25;6.80;;;0.90;56.30;;;;;;5004981;28;20087;-76
2022/12/08 06:09:43;;;;;;;7.88;6.43;;;0.90;56.30;;;;;;5023568;28;20044;-75
2022/12/08 06:12:28;;;;;;;8.60;6.43;;;0.90;56.30;;;;;;5025756;28;20048;-77
2022/12/08 06:15:12;;;;;;;9.18;7.05;;;0.90;56.30;;;;;;5025063;28;20048;-76
2022/12/08 06:17:57;;;;;;;9.20;6.18;;;0.90;56.30;;;;;;5010346;28;20044;-76
2022/12/08 06:20:42;;;;;;;9.52;6.70;;;0.90;56.30;;;;;;5025014;28;20512;-76
2022/12/08 06:23:26;;;;;;;7.82;6.13;;;1.00;56.50;;;;;;5007973;28;20069;-76
2022/12/08 06:26:13;;;;;;;8.80;6.43;;;1.00;56.50;;;;;;4990482;28;20053;-75
2022/12/08 06:28:59;;;;;;;8.50;6.78;;;1.00;56.50;;;;;;5016250;28;20389;-75
2022/12/08 06:31:43;;;;;;;10.20;6.55;;;1.00;56.50;;;;;;5007503;28;20052;-76
2022/12/08 06:34:28;;;;;;;6.68;5.88;;;1.00;57.00;;;;;;5006400;28;20048;-76
2022/12/08 06:37:12;;;;;;;8.60;7.47;;;1.00;56.50;;;;;;4977101;28;20040;-76
2022/12/08 06:39:57;;;;;;;10.82;7.30;;;1.00;56.50;;;;;;5019690;28;20608;-76
2022/12/08 06:42:43;;;;;;;6.75;6.05;;;1.10;56.70;;;;;;5006250;28;20684;-75
2022/12/08 06:45:28;;;;;;;8.18;6.22;;;1.10;56.60;;;;;;5004016;28;20048;-75
2022/12/08 06:48:12;;;;;;;7.97;6.40;;;1.10;56.70;;;;;;5011157;28;20087;-75
2022/12/08 06:51:04;;;;;;;9.10;7.05;;;1.10;56.60;;;;;;5008573;28;20100;-76
2022/12/08 06:53:48;;;;;;;9.25;7.07;;;1.10;56.70;;;;;;5005561;28;20048;-76
2022/12/08 06:56:33;;;;;;;8.70;6.85;;;1.20;56.90;;;;;;5004803;28;20051;-77
2022/12/08 06:59:18;;;;;;;9.27;6.95;;;1.20;57.10;;;;;;5020420;28;20053;-77
2022/12/08 07:02:03;;;;;;;9.90;6.90;;;1.20;56.90;;;;;;4995136;28;20056;-77
2022/12/08 07:04:47;;;;;;;10.70;7.50;;;1.20;56.90;;;;;;4996816;28;20115;-78
2022/12/08 07:07:32;;;;;;;8.45;6.50;;;1.20;56.90;;;;;;5024017;28;20143;-76
2022/12/08 07:10:17;;;;;;;8.50;7.03;;;1.20;57.00;;;;;;5012468;28;20045;-75
2022/12/08 07:13:01;;;;;;;8.73;7.55;;;1.10;56.80;;;;;;5005113;28;20390;-77
2022/12/08 07:15:46;;;;;;;9.50;7.28;;;1.10;56.90;;;;;;4988547;28;20348;-78
2022/12/08 07:18:30;;;;;;;9.65;7.90;;;1.10;57.00;;;;;;5005942;28;20073;-77
2022/12/08 07:21:16;;;;;;;8.90;7.45;;;1.10;57.10;;;;;;5007455;28;20542;-76
2022/12/08 07:24:01;;;;;;;9.35;7.15;;;1.10;57.10;;;;;;5003590;28;20133;-79
2022/12/08 07:26:45;;;;;;;9.23;7.72;;;1.00;56.90;;;;;;5003883;28;20412;-76
2022/12/08 07:29:30;;;;;;;12.05;7.78;;;1.00;57.00;;;;;;5012505;28;20418;-74
2022/12/08 07:32:14;;;;;;;11.43;7.50;;;1.00;57.10;;;;;;5004065;28;20118;-75
2022/12/08 07:34:59;;;;;;;8.68;7.30;;;0.90;56.90;;;;;;5004136;28;20041;-75
2022/12/08 07:37:43;;;;;;;10.70;7.88;;;0.90;57.00;;;;;;5018262;28;20121;-75
2022/12/08 07:40:28;;;;;;;9.27;7.13;;;0.90;57.00;;;;;;5003345;28;20216;-75
2022/12/08 07:43:12;;;;;;;9.07;7.40;;;0.90;57.00;;;;;;5002928;28;20045;-75
2022/12/08 07:45:57;;;;;;;13.07;7.90;;;0.90;57.60;;;;;;5002708;28;20048;-75
2022/12/08 07:48:42;;;;;;;9.05;7.75;;;0.90;57.10;;;;;;5006698;28;20052;-75
2022/12/08 07:51:26;;;;;;;9.57;8.00;;;0.90;57.10;;;;;;5022123;28;20172;-76
2022/12/08 07:54:12;;;;;;;8.73;7.13;;;0.90;57.10;;;;;;5020110;28;20134;-75
2022/12/08 07:56:56;;;;;;;10.07;7.00;;;0.90;57.00;;;;;;5007422;28;20547;-77
2022/12/08 07:59:41;;;;;;;8.95;6.80;;;0.90;57.00;;;;;;5013360;28;20088;-75
2022/12/08 08:02:25;;;;;;;9.65;6.53;;;1.00;57.80;;;;;;5008450;28;20431;-77
2022/12/08 08:05:13;;;;;;;8.38;6.75;;;0.90;57.00;;;;;;5008439;28;20044;-78
2022/12/08 08:07:58;;;;;;;10.77;6.75;;;1.00;57.20;;;;;;5008402;28;20040;-77
2022/12/08 08:10:43;;;;;;;7.72;6.75;;;0.90;57.00;;;;;;5007543;28;20252;-77
2022/12/08 08:13:27;;;;;;;8.93;6.93;;;0.90;57.00;;;;;;5008895;28;20536;-77
2022/12/08 08:16:12;;;;;;;7.60;6.78;;;0.90;57.60;;;;;;5006961;28;20113;-76
2022/12/08 08:18:57;;;;;;;7.30;6.10;;;0.90;57.10;;;;;;5018928;28;20064;-77
2022/12/08 08:21:41;;;;;;;7.95;6.47;;;0.90;57.10;;;;;;5026833;28;20048;-77
2022/12/08 08:24:26;;;;;;;9.80;6.65;;;0.90;57.10;;;;;;5009341;28;20520;-77
2022/12/08 08:27:11;;;;;;;7.28;6.13;;;0.90;57.10;;;;;;5007895;28;20032;-77
2022/12/08 08:29:56;;;;;;;12.18;7.35;;;0.90;57.10;;;;;;5019820;28;20092;-78
2022/12/08 08:32:41;;;;;;;8.25;6.60;;;0.80;57.00;;;;;;4993244;28;20096;-76
2022/12/08 08:35:28;;;;;;;6.70;5.43;;;0.80;57.00;;;;;;5008105;28;20453;-78
2022/12/08 08:38:13;;;;;;;9.43;5.88;;;0.80;57.00;;;;;;5011433;28;20045;-76
2022/12/08 08:41:07;;;;;;;8.85;6.53;;;0.80;57.00;;;;;;5009282;28;20053;-76
2022/12/08 08:43:53;;;;;;;8.95;6.20;;;0.80;57.00;;;;;;5007557;28;20151;-76
2022/12/08 08:46:40;;;;;;;8.32;7.53;;;0.80;57.00;;;;;;5004465;28;20513;-77
2022/12/08 08:49:25;;;;;;;11.70;6.65;;;0.80;57.00;;;;;;4995258;28;20489;-78
2022/12/08 08:52:10;;;;;;;12.43;6.20;;;0.80;57.00;;;;;;4998837;28;20199;-79
2022/12/08 08:54:54;;;;;;;8.73;6.55;;;0.80;57.00;;;;;;4985628;28;20085;-75
2022/12/08 08:57:44;;;;;;;8.07;6.20;;;0.80;57.00;;;;;;4980047;28;20097;-79
2022/12/08 09:00:51;;;;;;;10.00;5.88;;;0.80;56.90;;;;;;4986959;28;20141;-77
2022/12/08 09:03:36;;;;;;;6.80;5.43;;;0.80;56.90;;;;;;4981167;28;20041;-76
2022/12/08 09:06:23;;;;;;;8.30;5.50;;;0.80;56.90;;;;;;4965383;28;20045;-77
2022/12/08 09:09:08;;;;;;;8.07;5.35;;;0.80;56.90;;;;;;4977962;28;20519;-76
2022/12/08 09:11:56;;;;;;;9.25;7.20;;;0.80;56.90;;;;;;4981585;28;20037;-77
2022/12/08 09:14:40;;;;;;;11.20;6.70;;;0.80;56.90;;;;;;4981973;28;20387;-76
2022/12/08 09:17:27;;;;;;;9.82;6.63;;;0.80;56.90;;;;;;4967913;28;20105;-76
2022/12/08 09:20:13;;;;;;;10.90;6.90;;;0.80;56.90;;;;;;4968189;28;20101;-75
2022/12/08 09:23:21;;;;;;;8.80;6.45;;;0.80;56.90;;;;;;4968672;28;20038;-76
2022/12/08 09:26:08;;;;;;;10.55;7.82;;;0.90;57.10;;;;;;4968155;28;20296;-75
2022/12/08 09:28:53;;;;;;;15.88;7.78;;;0.90;57.10;;;;;;4971020;28;20041;-75
2022/12/08 09:31:38;;;;;;;11.23;8.55;;;0.90;57.10;;;;;;4967549;28;20065;-75
2022/12/08 09:34:23;;;;;;;10.57;8.02;;;0.90;57.10;;;;;;4968000;28;20584;-75
2022/12/08 09:37:07;;;;;;;14.10;9.05;;;1.00;57.20;;;;;;4966520;28;20042;-79
2022/12/08 09:39:52;;;;;;;11.77;8.95;;;0.90;57.00;;;;;;4985034;28;20045;-79
2022/12/08 09:43:04;;;;;;;11.75;9.25;;;1.00;57.20;;;;;;4987513;28;20041;-79
2022/12/08 09:46:15;;;;;;;12.32;9.52;;;1.10;57.40;;;;;;4970658;28;20138;-78
2022/12/08 09:49:01;;;;;;;12.20;9.85;;;1.10;57.30;;;;;;5023485;28;20417;-80
2022/12/08 09:52:24;;;;;;;14.02;9.05;;;1.10;57.20;;;;;;5006220;28;20037;-81
2022/12/08 09:55:21;;;;;;;14.95;10.07;;;1.20;57.30;;;;;;4991137;28;20041;-78
2022/12/08 09:58:28;;;;;;;13.60;8.88;;;1.20;57.30;;;;;;4995515;28;20265;-77
2022/12/08 10:01:13;;;;;;;12.95;9.60;;;1.30;57.40;;;;;;5001174;28;20339;-77
2022/12/08 10:04:32;;;;;;;11.75;9.68;;;1.30;57.30;;;;;;5024036;28;20052;-77
2022/12/08 10:07:31;;;;;;;11.45;9.75;;;1.40;57.50;;;;;;5020810;28;20045;-78
2022/12/08 10:10:34;;;;;;;12.73;8.95;;;1.40;57.40;;;;;;5024454;28;20036;-76
2022/12/08 10:13:42;;;;;;;10.07;9.13;;;1.40;57.40;;;;;;5021491;28;20079;-78
2022/12/08 10:16:37;;;;;;;12.13;8.70;;;1.50;57.60;;;;;;5023281;28;20667;-76
2022/12/08 10:19:24;;;;;;;10.85;9.25;;;1.50;57.60;;;;;;5021640;28;20437;-75
2022/12/08 10:22:21;;;;;;;8.65;7.72;;;1.50;57.60;;;;;;4975863;28;20044;-76
2022/12/08 10:25:23;;;;;;;10.43;7.63;;;1.60;57.80;;;;;;5005138;28;20137;-76
2022/12/08 10:28:09;;;;;;;9.18;7.72;;;1.60;57.80;;;;;;5012156;28;20096;-76
2022/12/08 10:30:53;;;;;;;10.43;7.80;;;1.60;57.80;;;;;;5023794;28;20060;-75
2022/12/08 10:33:38;;;;;;;8.48;7.22;;;1.70;58.00;;;;;;5023673;28;20048;-75
2022/12/08 10:36:42;;;;;;;10.43;7.18;;;1.70;58.00;;;;;;5023968;28;20405;-75
2022/12/08 10:39:37;;;;;;;8.45;7.50;;;1.80;58.10;;;;;;5021117;28;20091;-77
2022/12/08 10:42:21;;;;;;;9.30;6.72;;;1.80;58.10;;;;;;5007117;28;20041;-76
2022/12/08 10:45:09;;;;;;;9.95;7.25;;;1.90;58.30;;;;;;5015579;28;20048;-76
2022/12/08 10:47:59;;;;;;;8.20;6.07;;;1.90;58.20;;;;;;5009095;28;20059;-76
2022/12/08 10:50:54;;;;;;;8.60;7.05;;;2.00;58.40;;;;;;5022300;28;20103;-77
2022/12/08 10:53:45;;;;;;;6.82;5.65;;;2.00;58.40;;;;;;5017333;28;20067;-76
2022/12/08 10:56:30;;;;;;;8.10;5.90;;;2.10;58.50;;;;;;5025049;28;20380;-77
2022/12/08 10:59:18;;;;;;;19.65;5.63;;;2.20;58.70;;;;;;5024613;28;20060;-80
2022/12/08 11:02:13;;;;;;;7.80;5.55;;;2.20;58.70;;;;;;5016480;28;20088;-78
2022/12/08 11:04:59;;;;;;;7.05;5.30;;;2.30;59.10;;;;;;5037240;28;20047;-79
2022/12/08 11:07:52;;;;;;;8.20;5.40;;;2.40;59.20;;;;;;5026371;28;20052;-78
2022/12/08 11:10:43;;;;;;;7.30;4.93;;;2.50;59.20;;;;;;5004247;28;20544;-80
2022/12/08 11:13:28;;;;;;;6.82;4.57;;;2.60;59.30;;;;;;5011486;28;20390;-75
2022/12/08 11:16:16;;;;;;;8.50;4.85;;;2.70;59.50;;;;;;5023476;28;20075;-76
2022/12/08 11:19:06;;;;;;;5.63;4.10;;;2.70;59.50;;;;;;5015996;28;20186;-77
2022/12/08 11:21:51;;;;;;;6.18;4.57;;;2.70;59.50;;;;;;5023455;28;20484;-83
2022/12/08 11:24:36;;;;;;;4.65;3.70;;;2.80;59.70;;;;;;5014897;28;20055;-81
2022/12/08 11:27:21;;;;;;;5.53;4.88;;;2.80;59.70;;;;;;5024531;28;20469;-80
2022/12/08 11:30:14;;;;;;;6.60;4.90;;;2.80;59.70;;;;;;5011469;28;20069;-79
2022/12/08 11:33:19;;;;;;;5.45;4.20;;;2.90;59.90;;;;;;4992155;28;20088;-78
2022/12/08 11:36:08;;;;;;;5.68;3.55;;;2.90;59.90;;;;;;5023064;28;20067;-77
2022/12/08 11:39:00;;;;;;;5.55;3.63;;;2.90;59.90;;;;;;5021295;28;20122;-78
2022/12/08 11:41:46;;;;;;;4.72;3.88;;;3.00;60.00;;;;;;5004603;28;20064;-75
2022/12/08 11:44:56;;;;;;;3.67;3.30;;;3.00;60.00;;;;;;5010279;28;20048;-77
2022/12/08 11:48:16;;;;;;;4.63;3.55;;;3.10;60.20;;;;;;5004246;28;20225;-77
2022/12/08 11:51:33;;;;;;;7.93;5.20;;;3.10;60.10;;;;;;4989353;28;20538;-80
2022/12/08 11:54:46;;;;;;;6.25;4.60;;;3.10;60.10;;;;;;5004479;28;20084;-81
2022/12/08 11:57:30;;;;;;;6.97;5.10;;;3.20;60.30;;;;;;5008485;28;20045;-80
2022/12/08 12:00:16;;;;;;;5.95;5.07;;;3.30;60.30;;;;;;5022165;28;20098;-80
2022/12/08 12:03:28;;;;;;;7.43;5.50;;;3.40;60.40;;;;;;5017136;28;20117;-82
2022/12/08 12:06:16;;;;;;;10.00;6.32;;;3.40;60.40;;;;;;5003178;28;20040;-81
2022/12/08 12:09:25;;;;;;;5.78;5.07;;;3.40;60.40;;;;;;5014271;28;20056;-76
2022/12/08 12:12:57;;;;;;;6.20;5.45;;;3.50;60.60;;;;;;5023289;28;20111;-77
2022/12/08 12:16:01;;;;;;;6.50;5.15;;;3.40;60.40;;;;;;4978377;28;20121;-75
2022/12/08 12:18:51;;;;;;;;;;;3.50;60.60;;;;;;5009453;28;20040;-75
2022/12/08 12:21:42;;;;;;;7.10;5.40;;;3.50;60.60;;;;;;5021451;28;20355;-81
2022/12/08 12:24:33;;;;;;;10.13;5.15;;;3.50;60.50;;;;;;4989231;28;20517;-77
2022/12/08 12:27:31;;;;;;;6.72;4.93;;;3.50;60.50;;;;;;4989213;28;20104;-77
2022/12/08 12:30:27;;;;;;;7.25;5.10;;;3.50;60.60;;;;;;5021791;28;20116;-76
2022/12/08 12:33:14;;;;;;;5.75;4.07;;;3.50;60.60;;;;;;5015984;28;20047;-79
2022/12/08 12:36:05;;;;;;;7.63;4.53;;;3.50;60.60;;;;;;5007977;28;20108;-79
2022/12/08 12:39:03;;;;;;;6.13;4.05;;;3.50;60.60;;;;;;5023817;28;20452;-80
2022/12/08 12:41:51;;;;;;;5.15;4.53;;;3.60;60.70;;;;;;5005514;28;20099;-79
2022/12/08 12:44:38;;;;;;;5.88;3.92;;;3.60;60.70;;;;;;4992266;28;20464;-81
2022/12/08 12:47:49;;;;;;;4.88;3.65;;;3.60;60.60;;;;;;5002596;28;20044;-81
2022/12/08 12:50:35;;;;;;;7.93;4.15;;;3.70;60.70;;;;;;5007538;28;20064;-82
2022/12/08 12:53:20;;;;;;;4.63;4.07;;;3.70;60.70;;;;;;4993124;28;20130;-79
2022/12/08 12:56:06;;;;;;;6.45;4.30;;;3.70;60.60;;;;;;5015272;28;20072;-80
2022/12/08 12:58:52;;;;;;;4.82;3.40;;;3.70;60.60;;;;;;5012772;28;20052;-79
2022/12/08 13:01:50;;;;;;;4.30;3.28;;;3.80;60.70;;;;;;5026887;28;20045;-80
2022/12/08 13:04:36;;;;;;;5.38;3.63;;;3.80;60.70;;;;;;5007691;28;20992;-80
2022/12/08 13:07:34;;;;;;;4.00;3.53;;;3.70;60.50;;;;;;4977658;28;20048;-80
2022/12/08 13:10:37;;;;;;;5.45;3.63;;;3.70;60.40;;;;;;5024545;28;20036;-81
2022/12/08 13:13:22;;;;;;;4.53;3.67;;;3.80;60.50;;;;;;5007405;28;20068;-82
2022/12/08 13:16:09;;;;;;;4.13;3.28;;;3.80;60.50;;;;;;4991595;28;20048;-80
2022/12/08 13:19:04;;;;;;;5.07;3.35;;;3.80;60.50;;;;;;5011926;28;20106;-79
2022/12/08 13:21:49;;;;;;;4.07;3.50;;;3.80;60.50;;;;;;5026466;28;20128;-79
2022/12/08 13:24:34;;;;;;;4.18;3.72;;;3.80;60.50;;;;;;5025550;28;20136;-79
2022/12/08 13:27:32;;;;;;;6.50;3.92;;;3.80;60.50;;;;;;5014863;28;20128;-80
2022/12/08 13:30:41;;;;;;;8.07;4.72;;;3.80;60.50;;;;;;4998375;28;20552;-80
2022/12/08 13:33:29;;;;;;;5.03;4.45;;;3.80;60.50;;;;;;5007080;28;20045;-80
2022/12/08 13:36:31;;;;;;;5.35;4.25;;;3.90;60.60;;;;;;5006093;28;20567;-80
2022/12/08 13:39:38;;;;;;;4.80;4.40;;;3.90;60.50;;;;;;5014344;28;20479;-80
2022/12/08 13:42:26;;;;;;;4.30;3.80;;;3.90;60.50;;;;;;5005697;28;20202;-80
2022/12/08 13:45:10;;;;;;;4.28;3.83;;;4.00;60.60;;;;;;5006505;28;20554;-82
2022/12/08 13:48:02;;;;;;;4.65;3.67;;;4.00;60.50;;;;;;5006057;28;20053;-83
2022/12/08 13:50:55;;;;;;;4.78;3.47;;;4.10;60.50;;;;;;4990338;28;20129;-79
2022/12/08 13:53:41;;;;;;;5.15;3.33;;;4.20;60.50;;;;;;5008627;28;20044;-82
2022/12/08 13:56:28;;;;;;;5.53;4.03;;;4.30;60.50;;;;;;5025701;28;20047;-79
2022/12/08 13:59:18;;;;;;;3.33;2.65;;;4.40;60.50;;;;;;5012472;28;20052;-79
2022/12/08 14:02:32;;;;;;;3.25;2.67;;;4.40;60.30;;;;;;5019760;28;20060;-82
2022/12/08 14:05:19;;;;;;;3.47;2.30;;;4.50;60.20;;;;;;5006279;28;20044;-79
2022/12/08 14:08:08;;;;;;;4.85;2.70;;;4.60;60.20;;;;;;4994054;28;20068;-83
2022/12/08 14:11:00;;;;;;;5.35;1.98;;;4.70;60.20;;;;;;5020698;28;20043;-81
2022/12/08 14:13:44;;;;;;;2.53;1.90;;;4.80;60.20;;;;;;5006799;28;20036;-85
2022/12/08 14:16:41;;;;;;;3.30;1.83;;;4.90;60.20;;;;;;5007797;28;20045;-82
2022/12/08 14:19:31;;;;;;;4.13;2.28;;;4.90;60.00;;;;;;5023552;28;20548;-81
2022/12/08 14:22:16;;;;;;;3.20;1.95;;;5.00;60.10;;;;;;5024527;28;20103;-81
2022/12/08 14:25:02;;;;;;;2.67;2.03;;;5.00;60.00;;;;;;5005953;28;20041;-81
2022/12/08 14:27:49;;;;;;;1.63;1.50;;;5.10;60.00;;;;;;5006068;28;20284;-81
2022/12/08 14:30:35;;;;;;;2.47;1.80;;;5.20;60.10;;;;;;5023657;28;20507;-81
2022/12/08 14:33:20;;;;;;;2.65;1.77;;;5.20;59.90;;;;;;4991281;28;20084;-80
2022/12/08 14:36:07;;;;;;;5.50;2.00;;;5.20;59.90;;;;;;5004827;28;20044;-78
2022/12/08 14:38:54;;;;;;;2.97;1.80;;;5.20;59.70;;;;;;5002090;28;20044;-77
2022/12/08 14:41:38;;;;;;;2.28;1.45;;;5.30;59.80;;;;;;5010468;28;20091;-77
2022/12/08 14:44:23;;;;;;;2.72;1.63;;;5.40;59.90;;;;;;5011630;28;20092;-77
2022/12/08 14:47:09;;;;;;;2.72;1.70;;;5.30;59.60;;;;;;5011143;28;20401;-77
2022/12/08 14:49:53;;;;;;;3.45;1.70;;;5.40;59.70;;;;;;5025534;28;20044;-76
2022/12/08 14:52:42;;;;;;;3.78;1.50;;;5.40;59.60;;;;;;5017780;28;20045;-77
2022/12/08 14:55:33;;;;;;;4.00;1.90;;;5.40;59.50;;;;;;4993468;28;20409;-76